createdAt,value
2023-01-17T00:03:07.397Z,88.50
2023-01-17T00:08:31.518Z,88.15
2023-01-17T00:13:34.192Z,88.14
2023-01-17T00:18:36.890Z,88.87
2023-01-17T00:23:58.282Z,88.68
2023-01-17T00:29:00.749Z,88.36
2023-01-17T00:34:03.314Z,88.86
2023-01-17T00:39:05.762Z,89.14
2023-01-17T00:44:27.001Z,88.69
2023-01-17T00:49:48.021Z,89.34
2023-01-17T00:55:09.176Z,89.16
2023-01-17T01:00:30.617Z,89.29
2023-01-17T01:05:51.821Z,89.61
2023-01-17T01:11:13.299Z,89.11
2023-01-17T01:16:35.285Z,88.89
2023-01-17T01:21:56.281Z,89.00
2023-01-17T01:27:17.347Z,89.52
2023-01-17T01:32:38.364Z,89.11
2023-01-17T01:37:40.953Z,88.93
2023-01-17T01:42:57.124Z,89.13
2023-01-17T01:48:06.204Z,89.15
2023-01-17T01:53:08.931Z,88.78
2023-01-17T01:58:16.429Z,89.45
2023-01-17T02:03:27.409Z,88.99
2023-01-17T02:08:31.431Z,89.36
2023-01-17T02:13:34.073Z,89.45
2023-01-17T02:18:56.450Z,89.45
2023-01-17T02:24:23.639Z,89.51
2023-01-17T02:29:41.136Z,89.14
2023-01-17T02:34:49.513Z,89.35
2023-01-17T02:39:59.965Z,89.37
2023-01-17T02:45:03.059Z,89.27
2023-01-17T02:50:31.935Z,89.33
2023-01-17T02:55:57.788Z,89.29
2023-01-17T03:01:27.883Z,89.52
2023-01-17T03:06:58.756Z,89.38
2023-01-17T03:12:01.379Z,89.15
2023-01-17T03:17:04.595Z,89.20
2023-01-17T03:22:07.129Z,89.12
2023-01-17T03:27:09.686Z,89.50
2023-01-17T03:32:12.201Z,89.78
2023-01-17T03:37:15.165Z,89.57
2023-01-17T03:42:17.932Z,89.34
2023-01-17T03:47:20.517Z,88.72
2023-01-17T03:52:23.109Z,88.89
2023-01-17T03:57:25.701Z,89.32
2023-01-17T04:02:29.235Z,89.46
2023-01-17T04:07:31.808Z,89.49
2023-01-17T04:12:34.393Z,89.24
2023-01-17T04:17:37.054Z,89.49
2023-01-17T04:22:39.712Z,89.83
2023-01-17T04:27:42.256Z,90.12
2023-01-17T04:32:44.875Z,90.33
2023-01-17T04:37:47.553Z,90.06
2023-01-17T04:42:51.411Z,89.49
2023-01-17T04:47:58.771Z,89.59
2023-01-17T04:53:01.350Z,89.67
2023-01-17T04:58:03.929Z,89.55
2023-01-17T05:03:07.868Z,89.44
2023-01-17T05:08:10.565Z,89.69
2023-01-17T05:13:13.221Z,89.81
2023-01-17T05:18:17.677Z,89.84
2023-01-17T05:23:20.269Z,89.87
2023-01-17T05:28:22.771Z,89.78
2023-01-17T05:33:25.325Z,89.79
2023-01-17T05:38:27.869Z,90.30
2023-01-17T05:43:30.576Z,89.83
2023-01-17T05:48:33.155Z,89.46
2023-01-17T05:53:35.782Z,89.81
2023-01-17T05:58:40.118Z,89.97
2023-01-17T06:03:42.655Z,89.86
2023-01-17T06:08:45.785Z,89.88
2023-01-17T06:13:48.993Z,90.33
2023-01-17T06:18:51.588Z,90.04
2023-01-17T06:23:55.401Z,90.10
2023-01-17T06:28:58.087Z,89.87
2023-01-17T06:34:04.821Z,89.67
2023-01-17T06:39:07.489Z,89.53
2023-01-17T06:44:10.389Z,89.89
2023-01-17T06:49:13.090Z,89.25
2023-01-17T06:54:15.779Z,88.53
2023-01-17T06:59:18.470Z,88.35
2023-01-17T07:04:21.069Z,88.75
2023-01-17T07:09:24.282Z,89.01
2023-01-17T07:14:27.006Z,89.26
2023-01-17T07:19:29.768Z,88.92
2023-01-17T07:24:34.308Z,89.29
2023-01-17T07:29:36.944Z,89.13
2023-01-17T07:34:39.510Z,88.81
2023-01-17T07:39:42.151Z,88.41
2023-01-17T07:44:45.542Z,88.07
2023-01-17T07:49:48.086Z,88.67
2023-01-17T07:54:50.792Z,88.80
2023-01-17T07:59:53.347Z,88.86
2023-01-17T08:05:00.845Z,88.38
2023-01-17T08:10:06.821Z,88.30
2023-01-17T08:15:10.298Z,88.14
2023-01-17T08:20:13.168Z,88.37
2023-01-17T08:25:18.750Z,87.68
2023-01-17T08:30:21.341Z,87.69
2023-01-17T08:35:23.920Z,88.47
2023-01-17T08:40:26.861Z,88.22
2023-01-17T08:45:29.489Z,88.16
2023-01-17T08:50:32.041Z,88.10
2023-01-17T08:55:39.564Z,87.51
2023-01-17T09:00:42.108Z,87.64
2023-01-17T09:05:44.814Z,88.29
2023-01-17T09:10:47.398Z,87.31
2023-01-17T09:15:50.128Z,87.41
2023-01-17T09:20:55.282Z,87.08
2023-01-17T09:25:59.900Z,87.06
2023-01-17T09:31:07.483Z,87.74
2023-01-17T09:36:11.012Z,87.41
2023-01-17T09:41:30.137Z,87.32
2023-01-17T09:46:38.611Z,86.98
2023-01-17T09:51:42.698Z,87.07
2023-01-17T09:56:54.661Z,87.17
2023-01-17T10:02:51.608Z,88.07
2023-01-17T10:08:01.226Z,87.28
2023-01-17T10:13:19.462Z,87.46
2023-01-17T10:18:30.505Z,87.51
2023-01-17T10:23:46.976Z,87.60
2023-01-17T10:28:53.085Z,87.49
2023-01-17T10:33:57.970Z,88.17
2023-01-17T10:39:19.400Z,87.27
2023-01-17T10:44:27.605Z,87.01
2023-01-17T10:49:30.893Z,87.12
2023-01-17T10:55:10.447Z,87.24
2023-01-17T11:00:22.002Z,87.18
2023-01-17T11:05:28.845Z,87.62
2023-01-17T11:10:49.472Z,87.66
2023-01-17T11:16:00.834Z,87.96
2023-01-17T11:21:16.204Z,87.02
2023-01-17T11:26:30.427Z,86.98
2023-01-17T11:31:32.987Z,87.79
2023-01-17T11:36:35.705Z,87.71
2023-01-17T11:41:41.195Z,87.93
2023-01-17T11:46:43.760Z,87.95
2023-01-17T11:51:46.398Z,87.66
2023-01-17T11:56:50.601Z,88.00
2023-01-17T12:02:38.613Z,87.63
2023-01-17T12:08:18.314Z,87.45
2023-01-17T12:13:58.119Z,87.56
2023-01-17T12:19:32.497Z,88.11
2023-01-17T12:24:53.538Z,87.87
2023-01-17T12:30:10.895Z,88.07
2023-01-17T12:35:33.582Z,87.95
2023-01-17T12:41:00.341Z,87.80
2023-01-17T12:46:27.276Z,87.76
2023-01-17T12:51:37.608Z,87.42
2023-01-17T12:56:52.615Z,87.79
2023-01-17T13:02:00.075Z,87.46
2023-01-17T13:07:20.396Z,87.76
2023-01-17T13:12:29.837Z,87.35
2023-01-17T13:17:45.091Z,87.60
2023-01-17T13:22:48.124Z,87.28
2023-01-17T13:28:13.613Z,87.85
2023-01-17T13:33:34.997Z,87.13
2023-01-17T13:38:57.695Z,87.17
2023-01-17T13:44:19.557Z,86.58
2023-01-17T13:49:34.251Z,86.46
2023-01-17T13:55:04.569Z,86.58
2023-01-17T14:00:16.293Z,87.22
2023-01-17T14:05:39.058Z,86.88
2023-01-17T14:10:52.311Z,87.17
2023-01-17T14:15:55.032Z,86.90
2023-01-17T14:21:10.031Z,86.48
2023-01-17T14:26:21.332Z,86.69
2023-01-17T14:31:24.725Z,86.21
2023-01-17T14:36:32.555Z,86.21
2023-01-17T14:41:35.149Z,86.54
2023-01-17T14:46:37.743Z,86.70
2023-01-17T14:51:40.254Z,86.46
2023-01-17T14:56:42.774Z,86.23
2023-01-17T15:02:06.809Z,85.77
2023-01-17T15:07:23.041Z,86.15
2023-01-17T15:12:25.694Z,86.18
2023-01-17T15:17:28.712Z,86.08
2023-01-17T15:22:31.531Z,86.07
2023-01-17T15:27:34.339Z,85.92
2023-01-17T15:32:38.065Z,85.82
2023-01-17T15:37:41.795Z,84.84
2023-01-17T15:42:50.678Z,84.84
2023-01-17T15:47:53.217Z,84.79
2023-01-17T15:52:59.153Z,85.00
2023-01-17T15:58:02.746Z,84.94
2023-01-17T16:03:32.794Z,83.95
2023-01-17T16:08:39.847Z,84.22
2023-01-17T16:13:43.526Z,84.30
2023-01-17T16:18:47.245Z,84.09
2023-01-17T16:23:50.418Z,84.02
2023-01-17T16:28:53.071Z,84.13
2023-01-17T16:33:56.134Z,84.24
2023-01-17T16:38:58.772Z,84.13
2023-01-17T16:44:05.473Z,84.83
2023-01-17T16:49:08.092Z,84.37
2023-01-17T16:54:10.691Z,84.72
2023-01-17T16:59:13.275Z,85.12
2023-01-17T17:04:16.206Z,84.74
2023-01-17T17:09:18.774Z,85.09
2023-01-17T17:14:21.415Z,85.47
2023-01-17T17:19:24.272Z,84.97
2023-01-17T17:24:27.027Z,85.02
2023-01-17T17:29:29.653Z,85.29
2023-01-17T17:34:34.358Z,85.67
2023-01-17T17:39:36.968Z,85.47
2023-01-17T17:44:39.562Z,85.82
2023-01-17T17:49:42.747Z,86.12
2023-01-17T17:54:45.306Z,86.50
2023-01-17T17:59:47.885Z,86.13
2023-01-17T18:04:50.493Z,86.52
2023-01-17T18:09:54.008Z,86.99
2023-01-17T18:14:56.593Z,86.49
2023-01-17T18:19:59.744Z,87.22
2023-01-17T18:25:02.613Z,86.85
2023-01-17T18:30:06.622Z,87.15
2023-01-17T18:35:09.719Z,86.80
2023-01-17T18:40:12.468Z,87.03
2023-01-17T18:45:15.514Z,87.48
2023-01-17T18:50:18.165Z,86.93
2023-01-17T18:55:20.757Z,87.12
2023-01-17T19:00:23.933Z,87.18
2023-01-17T19:05:26.549Z,87.52
2023-01-17T19:10:29.116Z,87.77
2023-01-17T19:15:32.116Z,87.46
2023-01-17T19:20:35.772Z,87.67
2023-01-17T19:25:38.377Z,87.44
2023-01-17T19:30:41.028Z,88.33
2023-01-17T19:35:43.608Z,88.63
2023-01-17T19:40:46.305Z,88.45
2023-01-17T19:45:59.441Z,88.21
2023-01-17T19:51:13.139Z,88.22
2023-01-17T19:56:18.712Z,88.10
2023-01-17T20:01:25.323Z,88.06
2023-01-17T20:06:30.876Z,88.67
2023-01-17T20:11:33.838Z,88.73
2023-01-17T20:16:37.785Z,88.35
2023-01-17T20:21:40.510Z,89.01
2023-01-17T20:26:44.119Z,88.78
2023-01-17T20:31:52.514Z,88.74
2023-01-17T20:36:57.550Z,88.45
2023-01-17T20:42:00.131Z,88.76
2023-01-17T20:47:02.695Z,88.81
2023-01-17T20:52:06.265Z,89.11
2023-01-17T20:57:08.969Z,89.03
2023-01-17T21:02:12.701Z,89.01
2023-01-17T21:07:15.353Z,88.83
2023-01-17T21:12:18.148Z,88.92
2023-01-17T21:17:20.718Z,88.78
2023-01-17T21:22:23.265Z,88.41
2023-01-17T21:27:25.823Z,88.62
2023-01-17T21:32:29.803Z,88.59
2023-01-17T21:37:32.426Z,88.88
2023-01-17T21:42:35.044Z,89.23
2023-01-17T21:47:37.632Z,89.87
2023-01-17T21:52:40.259Z,89.40
2023-01-17T21:58:01.391Z,90.01
2023-01-17T22:03:04.042Z,90.01
2023-01-17T22:08:12.569Z,90.13
2023-01-17T22:13:18.449Z,89.88
2023-01-17T22:18:21.025Z,89.70
2023-01-17T22:23:23.711Z,89.41
2023-01-17T22:28:26.271Z,89.62
2023-01-17T22:33:28.769Z,89.29
2023-01-17T22:38:31.915Z,89.21
2023-01-17T22:43:36.380Z,89.45
2023-01-17T22:48:39.969Z,89.59
2023-01-17T22:53:54.461Z,89.34
2023-01-17T22:58:58.889Z,89.47
2023-01-17T23:04:03.921Z,89.14
2023-01-17T23:09:17.340Z,89.08
2023-01-17T23:14:29.131Z,89.33
2023-01-17T23:19:52.097Z,89.70
2023-01-17T23:24:58.678Z,89.11
2023-01-17T23:30:01.844Z,88.85
2023-01-17T23:35:05.975Z,88.80
2023-01-17T23:40:09.521Z,89.17
2023-01-17T23:45:12.080Z,88.64
2023-01-17T23:50:14.719Z,88.94
2023-01-17T23:55:18.159Z,88.92
